Observations for Trim Patrick St
| Time | AQI | Temp °C | Hum % | Pres Pa | CO μg/m³ | H₂S μg/m³ | NO μg/m³ | NO₂ μg/m³ | O₃ μg/m³ | SO₂ μg/m³ | PM1 μg/m³ | PM2.5 μg/m³ | PM10 μg/m³ |
|---|---|---|---|---|---|---|---|---|---|---|---|---|---|
| Wednesday 5 August 2026 | |||||||||||||
| 18:51 | 2 | 19.3 | 60 | 74,499 | 0 | 5.1 | 1.75 | 11.26 | 75.59 | 2.24 | 3.71 | 7.3 | 8.03 |
| 18:50 | 2 | 19.3 | 60 | 74,546 | 0 | 4.47 | 2.23 | 10.46 | 69.82 | 1.82 | 2 | 5.81 | 6.39 |
| 18:49 | 2 | 19.4 | 59 | 74,562 | 0 | 7.88 | 2.39 | 14.44 | 71.95 | 2.32 | 2.86 | 7.33 | 8.07 |
| 18:48 | 2 | 19.5 | 60 | 74,564 | 0 | 6.51 | 2.76 | 12.14 | 76.07 | 2.93 | 2 | 6.5 | 7.15 |
| 18:47 | 2 | 19.5 | 60 | 74,571 | 0 | 6.93 | 3.02 | 11.96 | 77.11 | 2.27 | 2 | 6.54 | 7.19 |
| 18:46 | 2 | 19.6 | 61 | 74,571 | 0 | 5.88 | 3.26 | 12.92 | 73.38 | 2.19 | 2 | 6.47 | 7.12 |
| 18:45 | 2 | 19.6 | 60 | 74,575 | 0 | 5.59 | 3.14 | 11.78 | 75.08 | 2.42 | 2 | 5.8 | 6.38 |
| 18:44 | 2 | 19.6 | 60 | 74,593 | 0 | 6.48 | 3.16 | 10.78 | 71.74 | 2.26 | 2 | 5.8 | 6.37 |
| 18:43 | 2 | 19.6 | 63 | 74,595 | 0 | 10.77 | 3.29 | 20.89 | 74.67 | 3.29 | 2 | 6.32 | 6.95 |
| 18:42 | 2 | 19.6 | 60 | 74,573 | 0 | 7.64 | 3.18 | 10.67 | 77.18 | 3.01 | 2 | 5.78 | 6.36 |
| 18:41 | 2 | 19.6 | 61 | 74,569 | 0 | 12.27 | 3.03 | 17.12 | 75.3 | 3.77 | 2.86 | 6.48 | 7.13 |
| 18:40 | 2 | 19.7 | 60 | 74,520 | 0 | 9.51 | 2.9 | 18.43 | 73.85 | 2.8 | 2 | 6.55 | 7.21 |
| 18:39 | 2 | 19.7 | 60 | 74,449 | 0 | 7.24 | 2.91 | 9.32 | 75.09 | 3.08 | 2.86 | 7.25 | 7.98 |
| 18:38 | 2 | 19.8 | 60 | 74,404 | 0 | 10.32 | 1.97 | 17.88 | 74.36 | 3.36 | 2.86 | 6.54 | 7.19 |
| 18:37 | 2 | 19.8 | 60 | 74,294 | 0 | 9.85 | 1.93 | 11.54 | 87.49 | 3.48 | 2 | 5.76 | 6.33 |
| 18:36 | 2 | 19.9 | 59 | 74,202 | 0 | 9.58 | 1.47 | 12.23 | 79.41 | 2.87 | 2 | 5.87 | 6.46 |
| 18:35 | 2 | 19.9 | 59 | 74,059 | 0 | 9.13 | 1.6 | 12.07 | 83.56 | 3.45 | 2.86 | 7.36 | 8.1 |
| 18:34 | 2 | 20 | 58 | 73,901 | 0 | 8.84 | 2.19 | 11.58 | 82.94 | 3.48 | 2 | 6.67 | 7.34 |
| 18:33 | 2 | 20.1 | 57 | 73,744 | 0 | 7.05 | 2.41 | 12 | 80.35 | 2.53 | 2 | 6.75 | 7.42 |
| 18:32 | 2 | 20.2 | 57 | 73,564 | 0 | 4.26 | 2.68 | 8.38 | 73.54 | 2.99 | 2 | 6 | 6.6 |